Pahrump, Nevada Weather observations

Data are for observation ending at time listed.
 Day   Time    Ave.   Ave.  Ave.  Vector   Max.   Stn.    Total    Solar   Ave.  
  of    of     Air    Rel.  Wind   Wind    Wind   Baro.  Precip.   Rad.    Soil  
Year   Day     Temp.  Hum.  Speed  Dir.    Gust   Pres.                    Temp. 
2014   (PST)    F      %     mph   deg.    mph     mb.     in.     W/m2     F   
------------------------------------------------------------------------------
 262   12:30   89.7    21    2.4   242      9.1   922.4    0.00     859    87.9
 262   12:40   90.6    20    3.0   284      7.3   922.4    0.00     854    88.4
 262   12:50   90.8    20    2.9   266      6.1   922.4    0.00     845    89.0
 262   13:00   90.1    20    4.1   177     10.4   922.3    0.00     834    89.5
 262   13:10   90.0    19    3.3   165      7.5   922.2    0.00     820    90.1
 262   13:20   90.4    19    2.0   200      7.5   922.0    0.00     806    90.5
 262   13:30   91.4    19    2.5   265      5.6   921.8    0.00     792    91.0
 262   13:40   91.0    19    3.9   235      7.8   921.6    0.00     771    91.4
 262   13:50   91.4    19    3.3   282      7.5   921.4    0.00     752    91.8
 262   14:00   91.5    17    4.1   191     10.2   921.1    0.00     733    92.0
 262   14:10   91.4    17    2.5   261      6.3   920.8    0.00     710    92.1
 262   14:20   91.5    16    3.6   186     10.1   920.6    0.00     687    92.0
 262   14:30   91.1    15    2.0   162      6.7   920.3    0.00     660    91.8
 262   14:40   91.8    15    4.6   199     12.6   920.2    0.00     631    91.7
 262   14:50   91.8    15    2.3   269      6.1   920.0    0.00     605    91.4
 262   15:00   91.9    14    7.1   170     12.2   920.0    0.00     574    91.2
 262   15:10   91.6    15    3.3   187      9.4   919.9    0.00     542    91.0
 262   15:20   91.9    15    3.1   232     10.8   919.8    0.00     509    90.8
 262   15:30   91.4    16    5.0   217     12.9   919.7    0.00     477    90.6
 262   15:40   91.5    16    3.6   250      8.9   919.7    0.00     444    90.4
 262   15:50   91.6    16    4.7   272     11.0   919.6    0.00     408    90.2
 262   16:00   91.8    16    2.2   261      6.6   919.6    0.00     137    90.1
 262   16:10   91.5    16    3.3   262      8.9   919.6    0.00      30    89.9
 262   16:20   91.5    16    2.0   277      5.8   919.6    0.00      30    89.7
 262   16:30   91.6    16    2.2   238      7.3   919.7    0.00      27    89.6
 262   16:40   91.0    17    3.2   261      8.2   919.7    0.00      24    89.4
 262   16:50   90.6    18    3.5   288      8.0   919.7    0.00      23    89.3
 262   17:00   90.1    18    3.3   289      7.5   919.7    0.00      23    89.2
 262   17:10   89.7    19    3.3   286      9.1   919.8    0.00      20    89.0
 262   17:20   89.2    19    3.8   284      9.0   919.8    0.00      17    88.9
 262   17:30   88.6    20    2.6   281      7.0   919.8    0.00      15    88.8
 262   17:40   88.0    20    2.7   287      7.1   919.7    0.00      10    88.7
 262   17:50   87.2    20    2.9   278      6.4   919.7    0.00       6    88.6
 262   18:00   86.4    21    1.9   276      4.6   919.7    0.00       3    88.4
 262   18:10   85.5    22    2.5   267      6.6   919.7    0.00       1    88.3
 262   18:20   84.7    22    1.7   261      4.2   919.6    0.00       0    88.2
 262   18:30   84.1    23    1.2   263      3.5   919.6    0.00       0    88.0
 262   18:40   83.2    23    0.5   244      2.1   919.6    0.00       0    87.8
 262   18:50   82.6    24    0.2   182      1.8   919.6    0.00       0    87.7
 262   19:00   83.1    23    1.4    84      2.1   919.6    0.00       0    87.6
 262   19:10   83.7    22    0.8   117      1.7   919.7    0.00       0    87.4
 262   19:20   84.0    22    1.6   127      3.5   919.8    0.00       0    87.3
 262   19:30   83.9    22    2.1   108      3.7   919.9    0.00       0    87.1
 262   19:40   83.6    22    3.1   100      6.3   920.1    0.00       0    87.0
 262   19:50   82.8    23    4.6   112      7.3   920.2    0.00       0    86.9
 262   20:00   82.5    22    4.4   100      7.0   920.3    0.00       0    86.7
 262   20:10   82.3    22    4.5    88      7.2   920.3    0.00       0    86.6
 262   20:20   82.0    23    4.2    98      6.4   920.4    0.00       0    86.5
 262   20:30   81.9    23    5.4    98      7.8   920.4    0.00       0    86.4
 262   20:40   81.7    23    4.5   101      7.2   920.4    0.00       0    86.3
 262   20:50   81.6    23    4.0    97      6.9   920.5    0.00       0    86.1
 262   21:00   81.2    23    4.7    93      7.2   920.5    0.00       0    86.1
 262   21:10   81.1    23    4.8    98      7.1   920.5    0.00       0    85.9
 262   21:20   80.9    23    5.3    98      7.7   920.5    0.00       0    85.8
 262   21:30   80.8    24    4.8   101      6.4   920.5    0.00       0    85.7
 262   21:40   80.6    24    4.6   102      7.6   920.5    0.00       0    85.6
 262   21:50   80.3    24    4.6   104      6.5   920.6    0.00       0    85.6
 262   22:00   79.9    25    4.0   108      5.0   920.7    0.00       0    85.5
 262   22:10   79.7    26    2.4   120      5.2   920.8    0.00       0    85.4
 262   22:20   78.2    28    1.9   244      4.2   920.8    0.00       0    85.2
 262   22:30   76.8    29    1.1   299      2.9   920.7    0.00       0    85.1
 262   22:40   75.3    30    1.0   301      2.3   920.7    0.00       0    85.0
 262   22:50   74.0    32    0.6   277      1.8   920.6    0.00       0    84.9
 262   23:00   73.2    32    0.9    14      2.2   920.5    0.00       0    84.8
 262   23:10   73.4    31    0.1    57      0.7   920.5    0.00       0    84.7
 262   23:20   73.5    30    0.5   116      2.0   920.5    0.00       0    84.6
 262   23:30   74.5    29    1.2   101      2.6   920.5    0.00       0    84.5
 262   23:40   75.0    28    1.2   111      2.7   920.5    0.00       0    84.3
 262   23:50   75.7    28    1.9    96      3.1   920.5    0.00       0    84.2
 263    0:00   76.3    28    2.8    98      5.3   920.6    0.00       0    84.1
 263    0:10   76.4    28    2.4   112      4.3   920.6    0.00       0    84.0
 263    0:20   76.2    27    3.3   100      7.2   920.7    0.00       0    83.9
 263    0:30   76.0    26    1.9    96      3.7   920.7    0.00       0    83.8
 263    0:40   75.9    26    1.5    92      3.1   920.7    0.00       0    83.7
 263    0:50   75.9    26    1.3   102      4.7   920.7    0.00       0    83.6
 263    1:00   76.2    26    2.4   110      5.4   920.6    0.00       0    83.5
 263    1:10   73.8    30    1.8   268      3.9   920.7    0.00       0    83.4
 263    1:20   71.6    33    2.2   258      4.3   920.6    0.00       0    83.3
 263    1:30   70.9    33    1.6   241      2.6   920.6    0.00       0    83.2
 263    1:40   70.6    34    1.5   227      2.9   920.5    0.00       0    83.1
 263    1:50   70.3    34    1.4   215      2.7   920.4    0.00       0    83.0
 263    2:00   70.2    34    0.9   221      1.5   920.4    0.00       0    82.9
 263    2:10   70.5    34    0.4    88      1.2   920.3    0.00       0    82.8
 263    2:20   71.5    32    1.3   125      1.9   920.1    0.00       0    82.7
 263    2:30   72.0    32    1.5   146      2.4   920.1    0.00       0    82.6
 263    2:40   72.6    32    1.8   171      2.3   920.2    0.00       0    82.5
 263    2:50   71.9    34    1.0   269      2.6   920.3    0.00       0    82.4
 263    3:00   70.5    36    1.1   308      2.5   920.4    0.00       0    82.3
 263    3:10   70.6    35    0.2   180      1.2   920.4    0.00       0    82.3
 263    3:20   71.0    34    0.7   204      1.5   920.4    0.00       0    82.2
 263    3:30   71.0    35    0.3    50      1.4   920.4    0.00       0    82.2
 263    3:40   70.7    36    0.4   270      2.0   920.3    0.00       0    82.1
 263    3:50   70.7    34    1.4     7      2.9   920.3    0.00       0    82.0
 263    4:00   70.5    35    0.6   242      1.9   920.3    0.00       0    81.9
 263    4:10   70.0    37    0.7   266      1.8   920.4    0.00       0    81.8
 263    4:20   70.0    34    2.1    13      3.2   920.4    0.00       0    81.8
 263    4:30   69.0    35    1.1    41      3.2   920.4    0.00       0    81.7
 263    4:40   69.0    36    1.5    54      2.6   920.5    0.00       0    81.6
 263    4:50   69.3    35    0.7    30      1.5   920.6    0.00       0    81.5
 263    5:00   68.6    36    2.1   307      3.8   920.5    0.00       0    81.4
 263    5:10   67.4    37    1.9    21      3.7   920.6    0.00       0    81.3
 263    5:20   67.7    36    0.6    62      2.1   920.7    0.00       0    81.2
 263    5:30   67.8    38    0.1   312      1.2   920.9    0.00       3    81.1
 263    5:40   67.7    39    1.0   331      2.3   920.9    0.00       3    81.1
 263    5:50   67.3    38    1.3   360      2.3   921.0    0.00       9    80.9
 263    6:00   67.4    39    0.2   248      1.3   921.1    0.00      19    80.9
 263    6:10   69.0    37    0.2   259      1.5   921.1    0.00      41    80.8
 263    6:20   71.2    34    0.0   252      0.4   921.2    0.00      18    80.7
 263    6:30   69.2    38    0.5   271      1.7   921.2    0.00      28    80.6
 263    6:40   68.5    39    0.8   187      1.4   921.4    0.00      68    80.6
 263    6:50   70.7    36    0.6   237      1.9   921.4    0.00      65    80.5
 263    7:00   71.9    34    0.5   163      1.7   921.6    0.00     211    80.5
 263    7:10   74.6    30    1.0   129      1.8   921.8    0.00     133    80.5
 263    7:20   75.5    30    1.1   105      1.7   922.1    0.00     227    80.5
 263    7:30   77.6    28    1.0   145      2.2   922.5    0.00     346    80.6
 263    7:40   80.1    26    1.5   102      2.8   922.9    0.00     361    80.8
 263    7:50   80.8    25    1.2    96      2.7   923.3    0.00     458    81.0
 263    8:00   83.5    22    0.5    87      1.5   923.6    0.00     398    81.3
 263    8:10   82.9    23    1.1   277      3.9   924.1    0.00     304    81.5
 263    8:20   84.3    23    1.5   286      3.5   924.3    0.00     421    81.8
 263    8:30   81.9    25    1.9   278      3.9   924.5    0.00     183    81.9
 263    8:40   80.4    27    1.6   276      3.2   924.4    0.00     160    82.1
 263    8:50   80.2    27    1.5   262      2.5   924.2    0.00     161    82.3
 263    9:00   81.8    26    1.6   303      3.1   924.0    0.00     560    82.5
 263    9:10   84.5    23    1.2   342      3.6   924.1    0.00     653    82.7
 263    9:20   86.0    22    1.6   312      3.4   924.4    0.00     430    82.9
 263    9:30   85.9    22    1.8   310      4.0   924.5    0.00     379    82.9
 263    9:40   85.3    21    1.2   344      3.8   924.5    0.00     283    83.1
 263    9:50   84.9    22    1.5   282      2.9   924.4    0.00     155    83.1
 263   10:00   85.2    22    1.1   299      3.1   924.2    0.00     308    83.3
 263   10:10   85.8    22    1.9   252      5.4   924.3    0.00     203    83.4
 263   10:20   84.5    24    1.8   270      4.5   924.3    0.00     135    83.6
 263   10:30   84.9    23    1.5   284      3.7   924.2    0.00     156    83.7
 263   10:40   85.4    24    1.3   314      2.9   924.2    0.00     234    83.8
 263   10:50   86.5    22    2.3   297      6.5   924.3    0.00     450    83.9
 263   11:00   86.9    22    4.7   284      9.9   924.3    0.00     504    84.0
 263   11:10   86.3    24    7.7   305     12.9   924.3    0.00     896    84.1
 263   11:20   87.7    22    5.8   313     10.4   924.4    0.00    1028    84.3
 263   11:30   87.4    22    6.9   323     10.8   924.5    0.00     417    84.5
 263   11:40   86.3    22    5.8   316      9.9   924.4    0.00     262    84.6
 263   11:50   86.0    22    5.4   326     10.4   924.2    0.00     334    84.8
 263   12:00   86.4    22    6.1   324     10.4   923.9    0.00     456    85.0
 263   12:10   86.9    22    5.3   314      9.9   923.7    0.00     403    85.2
 263   12:20   87.4    22    5.8   316      9.5   923.5    0.00     884    85.4

Return to Pahrump, Nevada graphs page.


Western Regional Climate Center,wrcc@dri.edu